Time;durP1;ratioP1;P1;durP2;ratioP2;P2;SDS_P1;SDS_P2;PMS_P1;PMS_P2;Temp;Humidity;BMP_temperature;BMP_pressure;BME280_temperature;BME280_humidity;BME280_pressure;Samples;Min_cycle;Max_cycle;Signal;HPM_P1;HPM_P2
2022/02/26 00:01:11;;;;;;;14.38;8.63;;;;;;;;;;5055076;28;20073;-56
2022/02/26 00:03:37;;;;;;;17.67;10.40;;;;;;;;;;5055377;28;20491;-56
2022/02/26 00:06:04;;;;;;;17.30;10.10;;;;;;;;;;5055092;28;20060;-55
2022/02/26 00:08:30;;;;;;;11.70;6.15;;;;;;;;;;5055293;28;20025;-54
2022/02/26 00:10:56;;;;;;;10.23;6.05;;;;;;;;;;5054899;28;20033;-55
2022/02/26 00:13:24;;;;;;;19.45;10.77;;;;;;;;;;5055542;28;20020;-53
2022/02/26 00:15:50;;;;;;;11.00;6.45;;;;;;;;;;5054834;28;20025;-54
2022/02/26 00:18:16;;;;;;;18.40;9.30;;;;;;;;;;5055132;28;20029;-55
2022/02/26 00:20:42;;;;;;;18.40;10.68;;;;;;;;;;5054704;28;20025;-55
2022/02/26 00:23:09;;;;;;;24.58;11.80;;;;;;;;;;5054827;28;20025;-55
2022/02/26 00:25:35;;;;;;;30.17;17.15;;;;;;;;;;5054566;28;20033;-53
2022/02/26 00:28:01;;;;;;;17.95;9.77;;;;;;;;;;5054665;28;20449;-52
2022/02/26 00:30:30;;;;;;;18.00;10.38;;;;;;;;;;5054615;28;20426;-52
2022/02/26 00:32:56;;;;;;;31.48;17.83;;;;;;;;;;5054740;28;20025;-55
2022/02/26 00:35:22;;;;;;;18.63;10.60;;;;;;;;;;5054613;28;20494;-52
2022/02/26 00:37:51;;;;;;;18.20;10.40;;;;;;;;;;5054594;28;20029;-48
2022/02/26 00:40:17;;;;;;;46.78;15.02;;;;;;;;;;5054500;28;20025;-56
2022/02/26 00:42:43;;;;;;;35.50;17.80;;;;;;;;;;5054619;28;20025;-55
2022/02/26 00:45:11;;;;;;;22.90;12.85;;;;;;;;;;5054403;28;20116;-52
2022/02/26 00:47:37;;;;;;;30.70;17.50;;;;;;;;;;5054683;28;20017;-53
2022/02/26 00:50:07;;;;;;;41.20;22.90;;;;;;;;;;5054432;28;20033;-50
2022/02/26 00:52:35;;;;;;;24.30;14.07;;;;;;;;;;5054332;28;20390;-48
2022/02/26 00:55:05;;;;;;;27.35;15.38;;;;;;;;;;5054155;28;20354;-52
2022/02/26 00:57:31;;;;;;;27.27;14.88;;;;;;;;;;5054271;28;20025;-47
2022/02/26 00:59:57;;;;;;;23.77;12.82;;;;;;;;;;5054000;28;20037;-52
2022/02/26 01:02:23;;;;;;;15.90;9.38;;;;;;;;;;5054240;28;20100;-49
2022/02/26 01:04:50;;;;;;;19.60;11.20;;;;;;;;;;5054149;28;20090;-51
2022/02/26 01:07:16;;;;;;;29.40;15.55;;;;;;;;;;5054014;28;20047;-49
2022/02/26 01:09:42;;;;;;;17.98;10.63;;;;;;;;;;5053781;28;20087;-50
2022/02/26 01:12:09;;;;;;;26.30;14.15;;;;;;;;;;5053944;28;20021;-54
2022/02/26 01:14:36;;;;;;;19.10;10.77;;;;;;;;;;5054185;28;20057;-51
2022/02/26 01:17:03;;;;;;;20.85;10.93;;;;;;;;;;5053982;28;20071;-53
2022/02/26 01:19:29;;;;;;;10.27;6.45;;;;;;;;;;5053695;28;20110;-53
2022/02/26 01:21:55;;;;;;;13.70;7.25;;;;;;;;;;5053763;28;20496;-51
2022/02/26 01:24:22;;;;;;;12.73;7.80;;;;;;;;;;5053522;28;20079;-54
2022/02/26 01:26:48;;;;;;;11.02;6.20;;;;;;;;;;5051772;28;20037;-54
2022/02/26 01:29:14;;;;;;;11.57;6.72;;;;;;;;;;5053730;28;20043;-49
2022/02/26 01:31:40;;;;;;;11.30;6.40;;;;;;;;;;5053411;28;20021;-55
2022/02/26 01:34:06;;;;;;;10.75;5.72;;;;;;;;;;5053449;28;20535;-54
2022/02/26 01:36:32;;;;;;;12.15;7.20;;;;;;;;;;5053363;28;20037;-51
2022/02/26 01:39:00;;;;;;;13.35;7.60;;;;;;;;;;5053351;28;20124;-51
2022/02/26 01:41:30;;;;;;;21.85;16.35;;;;;;;;;;5053321;28;20099;-49
2022/02/26 01:43:56;;;;;;;30.23;20.05;;;;;;;;;;5053538;28;20052;-54
2022/02/26 01:46:22;;;;;;;20.23;11.82;;;;;;;;;;5053551;28;20036;-56
2022/02/26 01:48:49;;;;;;;8.85;5.38;;;;;;;;;;5053449;28;20381;-55
2022/02/26 01:51:15;;;;;;;9.45;6.10;;;;;;;;;;5053367;28;20021;-55
2022/02/26 01:53:41;;;;;;;6.35;3.88;;;;;;;;;;5053143;28;20029;-54
2022/02/26 01:56:10;;;;;;;6.38;4.15;;;;;;;;;;5053014;28;20029;-54
2022/02/26 01:58:37;;;;;;;8.75;5.15;;;;;;;;;;5053173;28;20021;-53
2022/02/26 02:01:03;;;;;;;16.20;8.00;;;;;;;;;;5052894;28;20394;-53
2022/02/26 02:03:29;;;;;;;8.82;5.30;;;;;;;;;;5053223;28;20025;-53
2022/02/26 02:05:56;;;;;;;8.57;4.95;;;;;;;;;;5052933;28;20501;-52
2022/02/26 02:08:22;;;;;;;12.10;6.50;;;;;;;;;;5053563;28;20029;-53
2022/02/26 02:10:49;;;;;;;10.73;4.40;;;;;;;;;;5052999;28;20103;-52
2022/02/26 02:13:15;;;;;;;10.43;5.63;;;;;;;;;;5053284;28;20025;-52
2022/02/26 02:15:42;;;;;;;8.60;4.47;;;;;;;;;;5052955;28;20198;-52
2022/02/26 02:18:09;;;;;;;14.73;8.73;;;;;;;;;;5053176;28;20022;-52
2022/02/26 02:20:36;;;;;;;9.07;4.25;;;;;;;;;;5053049;28;20516;-50
2022/02/26 02:23:04;;;;;;;10.85;4.60;;;;;;;;;;5052815;28;20021;-52
2022/02/26 02:25:31;;;;;;;7.18;4.95;;;;;;;;;;5051501;28;20037;-51
2022/02/26 02:27:58;;;;;;;7.68;2.95;;;;;;;;;;5053017;28;20029;-53
2022/02/26 02:30:25;;;;;;;6.25;3.60;;;;;;;;;;5053105;28;20060;-51
2022/02/26 02:32:51;;;;;;;8.57;4.82;;;;;;;;;;5052774;28;20032;-52
2022/02/26 02:35:26;;;;;;;10.35;8.23;;;;;;;;;;5052933;28;20084;-52
2022/02/26 02:37:52;;;;;;;19.50;16.20;;;;;;;;;;5053117;28;20074;-52
2022/02/26 02:40:18;;;;;;;13.13;9.65;;;;;;;;;;5056693;28;20033;-48
2022/02/26 02:42:46;;;;;;;5.95;5.13;;;;;;;;;;5056759;28;20373;-54
2022/02/26 02:45:12;;;;;;;8.88;4.30;;;;;;;;;;5056677;28;20043;-55
2022/02/26 02:47:38;;;;;;;3.95;2.75;;;;;;;;;;5056636;28;20023;-52
2022/02/26 02:50:05;;;;;;;4.97;3.65;;;;;;;;;;5056989;28;20029;-53
2022/02/26 02:52:31;;;;;;;6.90;2.95;;;;;;;;;;5056538;28;20024;-54
2022/02/26 02:54:57;;;;;;;5.13;3.03;;;;;;;;;;5056440;28;20472;-54
2022/02/26 02:57:24;;;;;;;4.18;2.80;;;;;;;;;;5056665;28;20055;-54
2022/02/26 02:59:50;;;;;;;10.90;4.30;;;;;;;;;;5056109;28;20025;-54
2022/02/26 03:02:16;;;;;;;8.38;4.05;;;;;;;;;;5056239;28;20029;-54
2022/02/26 03:04:42;;;;;;;6.65;3.45;;;;;;;;;;5056319;28;20175;-52
2022/02/26 03:07:08;;;;;;;8.48;2.90;;;;;;;;;;5056250;28;20032;-53
2022/02/26 03:09:34;;;;;;;6.63;3.67;;;;;;;;;;5056111;28;20066;-54
2022/02/26 03:12:00;;;;;;;7.63;4.10;;;;;;;;;;5056381;28;20028;-54
2022/02/26 03:14:26;;;;;;;7.70;4.22;;;;;;;;;;5056251;28;20020;-53
2022/02/26 03:16:52;;;;;;;6.60;4.53;;;;;;;;;;5056175;28;20025;-52
2022/02/26 03:19:18;;;;;;;5.07;3.60;;;;;;;;;;5056305;28;20021;-54
2022/02/26 03:21:44;;;;;;;6.88;3.95;;;;;;;;;;5056423;28;20082;-53
2022/02/26 03:24:12;;;;;;;5.40;3.88;;;;;;;;;;5056336;28;20027;-54
2022/02/26 03:26:41;;;;;;;5.55;3.63;;;;;;;;;;5055806;28;20033;-54
2022/02/26 03:29:09;;;;;;;5.47;3.45;;;;;;;;;;5056162;28;20025;-54
2022/02/26 03:31:35;;;;;;;6.22;3.17;;;;;;;;;;5055992;28;20032;-54
2022/02/26 03:34:01;;;;;;;5.78;3.28;;;;;;;;;;5055914;28;20033;-51
2022/02/26 03:36:32;;;;;;;4.38;3.30;;;;;;;;;;5055818;28;20531;-52
2022/02/26 03:38:58;;;;;;;7.53;3.05;;;;;;;;;;5055981;28;20032;-54
2022/02/26 03:41:24;;;;;;;5.60;3.95;;;;;;;;;;5056074;28;20029;-55
2022/02/26 03:43:50;;;;;;;8.90;6.15;;;;;;;;;;5056034;28;20092;-55
2022/02/26 03:46:16;;;;;;;8.98;8.07;;;;;;;;;;5055977;28;20041;-54
2022/02/26 03:48:44;;;;;;;9.88;7.45;;;;;;;;;;5056125;28;20032;-55
2022/02/26 03:51:10;;;;;;;6.80;4.18;;;;;;;;;;5054960;28;20046;-55
2022/02/26 03:53:36;;;;;;;5.80;3.03;;;;;;;;;;5055485;28;20016;-54
2022/02/26 03:56:03;;;;;;;3.38;2.63;;;;;;;;;;5055284;28;20029;-54
2022/02/26 03:58:29;;;;;;;4.82;3.30;;;;;;;;;;5055706;28;20476;-54
2022/02/26 04:00:55;;;;;;;7.00;3.42;;;;;;;;;;5054995;28;20072;-54
2022/02/26 04:03:24;;;;;;;8.80;4.38;;;;;;;;;;5055229;28;20021;-54
2022/02/26 04:05:50;;;;;;;4.55;2.95;;;;;;;;;;5055219;28;20048;-53
2022/02/26 04:08:16;;;;;;;6.63;3.45;;;;;;;;;;5055119;28;20470;-55
2022/02/26 04:10:44;;;;;;;6.03;3.63;;;;;;;;;;5055162;28;20021;-53
2022/02/26 04:13:10;;;;;;;4.97;3.25;;;;;;;;;;5055400;28;20075;-53
2022/02/26 04:15:36;;;;;;;6.30;3.13;;;;;;;;;;5055048;28;20049;-51
2022/02/26 04:18:02;;;;;;;6.32;3.10;;;;;;;;;;5055203;28;20021;-52
2022/02/26 04:20:28;;;;;;;7.53;3.78;;;;;;;;;;5054937;28;20067;-53
2022/02/26 04:22:54;;;;;;;7.25;4.50;;;;;;;;;;5054829;28;20033;-53
2022/02/26 04:25:21;;;;;;;5.53;3.35;;;;;;;;;;5054888;28;20094;-53
2022/02/26 04:27:47;;;;;;;6.72;3.80;;;;;;;;;;5054714;28;20116;-54
2022/02/26 04:30:13;;;;;;;6.80;4.22;;;;;;;;;;5054587;28;20032;-54
2022/02/26 04:32:39;;;;;;;6.10;3.88;;;;;;;;;;5054533;28;20036;-50
2022/02/26 04:35:06;;;;;;;5.82;4.00;;;;;;;;;;5054424;28;20359;-52
2022/02/26 04:37:32;;;;;;;5.53;3.45;;;;;;;;;;5053462;28;20026;-53
2022/02/26 04:39:59;;;;;;;7.05;4.28;;;;;;;;;;5054669;28;20540;-53
2022/02/26 04:42:25;;;;;;;11.13;5.80;;;;;;;;;;5054424;28;20472;-53
2022/02/26 04:44:51;;;;;;;9.48;4.28;;;;;;;;;;5054632;28;20431;-52
2022/02/26 04:47:17;;;;;;;14.35;8.00;;;;;;;;;;5054576;28;20033;-54
2022/02/26 04:49:44;;;;;;;11.77;7.47;;;;;;;;;;5054374;28;20469;-55
2022/02/26 04:52:10;;;;;;;6.85;3.83;;;;;;;;;;5052969;28;20040;-54
2022/02/26 04:54:36;;;;;;;19.15;10.60;;;;;;;;;;5054143;28;20024;-54
2022/02/26 04:57:05;;;;;;;26.17;16.15;;;;;;;;;;5054363;28;20029;-54
2022/02/26 04:59:31;;;;;;;22.92;13.45;;;;;;;;;;5054245;28;20018;-54
2022/02/26 05:01:57;;;;;;;25.45;14.27;;;;;;;;;;5052880;28;20516;-50
2022/02/26 05:04:23;;;;;;;13.02;6.78;;;;;;;;;;5053983;28;20059;-54
2022/02/26 05:06:49;;;;;;;13.35;7.50;;;;;;;;;;5053985;28;20027;-53
2022/02/26 05:09:15;;;;;;;16.73;7.07;;;;;;;;;;5053882;28;20397;-54
2022/02/26 05:11:41;;;;;;;8.00;4.20;;;;;;;;;;5054248;28;20032;-54
2022/02/26 05:14:07;;;;;;;22.58;9.05;;;;;;;;;;5053872;28;20024;-53
2022/02/26 05:16:33;;;;;;;51.13;20.20;;;;;;;;;;5053815;28;20107;-53
2022/02/26 05:18:59;;;;;;;56.40;23.20;;;;;;;;;;5053742;28;20381;-54
2022/02/26 05:21:25;;;;;;;44.33;17.98;;;;;;;;;;5053787;28;20052;-54
2022/02/26 05:23:52;;;;;;;25.63;13.18;;;;;;;;;;5053499;28;20021;-53
2022/02/26 05:26:18;;;;;;;22.58;11.65;;;;;;;;;;5053577;28;20080;-53
2022/02/26 05:28:44;;;;;;;21.17;11.77;;;;;;;;;;5053607;28;20032;-53
2022/02/26 05:31:10;;;;;;;20.83;9.60;;;;;;;;;;5053772;28;20114;-51
2022/02/26 05:33:36;;;;;;;16.90;8.98;;;;;;;;;;5036070;28;20021;-52
2022/02/26 05:36:03;;;;;;;20.65;11.38;;;;;;;;;;5053635;28;20025;-53
2022/02/26 05:38:29;;;;;;;22.52;12.55;;;;;;;;;;5053670;28;20053;-51
2022/02/26 05:40:55;;;;;;;24.02;10.88;;;;;;;;;;5053674;28;20366;-53
2022/02/26 05:43:21;;;;;;;26.63;13.27;;;;;;;;;;5051575;28;20033;-53
2022/02/26 05:45:47;;;;;;;22.90;11.70;;;;;;;;;;5053564;28;20116;-54
2022/02/26 05:48:13;;;;;;;26.50;13.75;;;;;;;;;;5053423;28;20354;-52
2022/02/26 05:50:39;;;;;;;18.42;9.25;;;;;;;;;;5053272;28;20166;-54
2022/02/26 05:53:06;;;;;;;22.38;10.13;;;;;;;;;;5053325;28;20028;-53
2022/02/26 05:55:32;;;;;;;21.20;11.60;;;;;;;;;;5053367;28;20029;-54
2022/02/26 05:57:58;;;;;;;19.33;11.30;;;;;;;;;;5053181;28;20021;-53
2022/02/26 06:00:25;;;;;;;19.27;11.13;;;;;;;;;;5052903;28;20052;-54
2022/02/26 06:02:51;;;;;;;19.92;9.25;;;;;;;;;;5053196;28;20021;-54
2022/02/26 06:05:17;;;;;;;14.30;8.15;;;;;;;;;;5053025;28;20064;-54
2022/02/26 06:07:43;;;;;;;14.57;7.97;;;;;;;;;;5053487;28;20024;-53
2022/02/26 06:10:09;;;;;;;17.85;9.98;;;;;;;;;;5052892;28;20032;-53
2022/02/26 06:12:36;;;;;;;14.60;7.45;;;;;;;;;;5052925;28;20044;-52
2022/02/26 06:15:03;;;;;;;16.27;9.05;;;;;;;;;;5053165;28;20039;-54
2022/02/26 06:17:29;;;;;;;15.10;7.15;;;;;;;;;;5053226;28;20057;-53
2022/02/26 06:19:55;;;;;;;14.25;7.57;;;;;;;;;;5052945;28;20032;-54
2022/02/26 06:22:22;;;;;;;18.50;8.77;;;;;;;;;;5052957;28;20113;-53
2022/02/26 06:24:48;;;;;;;23.02;9.73;;;;;;;;;;5052762;28;20033;-53
2022/02/26 06:27:14;;;;;;;22.45;10.82;;;;;;;;;;5051710;28;20079;-53
2022/02/26 06:29:40;;;;;;;22.35;10.00;;;;;;;;;;5053024;28;20047;-54
2022/02/26 06:32:06;;;;;;;24.90;9.27;;;;;;;;;;5052946;28;20025;-54
2022/02/26 06:34:33;;;;;;;20.88;10.48;;;;;;;;;;5053161;28;20120;-53
2022/02/26 06:36:59;;;;;;;22.73;9.00;;;;;;;;;;5052912;28;20049;-54
2022/02/26 06:39:25;;;;;;;17.73;8.07;;;;;;;;;;5052975;28;20106;-53
2022/02/26 06:41:51;;;;;;;19.17;9.63;;;;;;;;;;5052840;28;20427;-53
2022/02/26 06:44:17;;;;;;;17.60;7.90;;;;;;;;;;5052679;28;20025;-52
2022/02/26 06:46:44;;;;;;;16.10;8.77;;;;;;;;;;5052625;28;20036;-52
2022/02/26 06:49:10;;;;;;;14.25;7.45;;;;;;;;;;5052650;28;20025;-53
2022/02/26 06:51:36;;;;;;;16.50;7.75;;;;;;;;;;5052890;28;20114;-53
2022/02/26 06:54:02;;;;;;;19.17;8.90;;;;;;;;;;5052619;28;20021;-47
2022/02/26 06:56:28;;;;;;;16.83;7.97;;;;;;;;;;5034696;28;20397;-52
2022/02/26 06:58:55;;;;;;;15.52;7.15;;;;;;;;;;5052520;28;20052;-54
2022/02/26 07:01:21;;;;;;;19.48;7.80;;;;;;;;;;5052487;28;20052;-58
2022/02/26 07:03:48;;;;;;;13.38;8.05;;;;;;;;;;5052445;28;20025;-58
2022/02/26 07:06:14;;;;;;;19.75;7.32;;;;;;;;;;5052587;28;20469;-58
2022/02/26 07:08:40;;;;;;;19.08;9.88;;;;;;;;;;5052406;28;20033;-56
2022/02/26 07:11:08;;;;;;;16.83;9.48;;;;;;;;;;5052260;28;20027;-57
2022/02/26 07:13:35;;;;;;;19.80;9.95;;;;;;;;;;5052544;28;20504;-57
2022/02/26 07:16:01;;;;;;;19.20;11.15;;;;;;;;;;5052554;28;20023;-57
2022/02/26 07:18:27;;;;;;;22.63;12.88;;;;;;;;;;5052342;28;20060;-53
2022/02/26 07:20:53;;;;;;;17.15;10.48;;;;;;;;;;5052445;28;20021;-57
2022/02/26 07:23:24;;;;;;;24.33;13.68;;;;;;;;;;5052438;28;20025;-56
2022/02/26 07:25:52;;;;;;;24.23;12.77;;;;;;;;;;5054007;28;20051;-55
2022/02/26 07:28:18;;;;;;;24.95;13.55;;;;;;;;;;5038312;28;20047;-56
2022/02/26 07:30:46;;;;;;;23.23;12.13;;;;;;;;;;5055899;28;20421;-56
2022/02/26 07:33:14;;;;;;;20.67;11.88;;;;;;;;;;5055872;28;20032;-54
2022/02/26 07:35:40;;;;;;;22.70;11.77;;;;;;;;;;5055803;28;20047;-56
2022/02/26 07:38:06;;;;;;;16.40;10.07;;;;;;;;;;5056188;28;20036;-54
2022/02/26 07:40:32;;;;;;;26.63;15.18;;;;;;;;;;5055671;28;20104;-55
2022/02/26 07:42:58;;;;;;;20.40;11.07;;;;;;;;;;5055696;28;20044;-56
2022/02/26 07:45:27;;;;;;;18.13;11.30;;;;;;;;;;5055798;28;20036;-56
2022/02/26 07:47:53;;;;;;;18.45;10.73;;;;;;;;;;5055845;28;20504;-55
2022/02/26 07:50:20;;;;;;;26.67;12.40;;;;;;;;;;5055932;28;20048;-55
2022/02/26 07:52:46;;;;;;;17.85;9.95;;;;;;;;;;5054112;28;20468;-56
2022/02/26 07:55:12;;;;;;;16.35;8.02;;;;;;;;;;5055259;28;20052;-55
2022/02/26 07:57:38;;;;;;;28.02;9.82;;;;;;;;;;5055544;28;20049;-55
2022/02/26 08:00:05;;;;;;;28.17;11.00;;;;;;;;;;5055034;28;20037;-55
2022/02/26 08:02:31;;;;;;;20.20;10.25;;;;;;;;;;5055174;28;20029;-54
2022/02/26 08:04:57;;;;;;;21.25;9.13;;;;;;;;;;5055111;28;20043;-55
2022/02/26 08:07:23;;;;;;;17.80;9.63;;;;;;;;;;5055194;28;20035;-55
2022/02/26 08:09:49;;;;;;;17.98;8.45;;;;;;;;;;5054866;28;20432;-47
2022/02/26 08:12:15;;;;;;;17.73;9.05;;;;;;;;;;5055079;28;20049;-55
2022/02/26 08:14:41;;;;;;;17.88;9.63;;;;;;;;;;5055165;28;20021;-54
2022/02/26 08:17:10;;;;;;;23.00;9.85;;;;;;;;;;5054999;28;20135;-55
2022/02/26 08:19:38;;;;;;;19.58;10.30;;;;;;;;;;5054790;28;20056;-55
2022/02/26 08:22:04;;;;;;;20.63;11.93;;;;;;;;;;5054954;28;20021;-55
2022/02/26 08:24:33;;;;;;;26.02;12.43;;;;;;;;;;5054658;28;20051;-52
2022/02/26 08:26:59;;;;;;;21.92;9.63;;;;;;;;;;5054774;28;20025;-56
2022/02/26 08:29:25;;;;;;;15.65;9.98;;;;;;;;;;5054570;28;20017;-54
2022/02/26 08:31:51;;;;;;;26.40;9.10;;;;;;;;;;5055158;28;20029;-55
2022/02/26 08:34:17;;;;;;;22.25;10.80;;;;;;;;;;5054737;28;20496;-55
2022/02/26 08:36:44;;;;;;;22.63;11.60;;;;;;;;;;5054724;28;20032;-55
2022/02/26 08:39:10;;;;;;;20.45;10.10;;;;;;;;;;5054404;28;20025;-56
2022/02/26 08:41:36;;;;;;;25.08;11.07;;;;;;;;;;5053869;28;20029;-55
2022/02/26 08:44:02;;;;;;;20.05;10.05;;;;;;;;;;5063610;28;20031;-55
2022/02/26 08:46:28;;;;;;;20.50;10.57;;;;;;;;;;5073645;28;20033;-56
2022/02/26 08:48:56;;;;;;;25.70;12.05;;;;;;;;;;5074265;28;20456;-56
2022/02/26 08:51:22;;;;;;;21.38;10.13;;;;;;;;;;5074034;28;20204;-56
2022/02/26 08:53:48;;;;;;;25.70;12.88;;;;;;;;;;5073668;28;20066;-56
2022/02/26 08:56:14;;;;;;;29.75;13.77;;;;;;;;;;5073422;28;20472;-56
2022/02/26 08:58:40;;;;;;;27.10;12.05;;;;;;;;;;5073561;28;20012;-55
2022/02/26 09:01:06;;;;;;;28.25;12.55;;;;;;;;;;5073159;28;20582;-55
2022/02/26 09:03:32;;;;;;;26.90;12.40;;;;;;;;;;5073580;28;20065;-52
2022/02/26 09:05:58;;;;;;;19.73;9.07;;;;;;;;;;5073455;28;20388;-54
2022/02/26 09:08:24;;;;;;;26.85;9.15;;;;;;;;;;5073865;28;20074;-55
2022/02/26 09:10:50;;;;;;;15.15;6.63;;;;;;;;;;5073133;28;20354;-56
2022/02/26 09:13:17;;;;;;;19.30;11.57;;;;;;;;;;5073601;28;20019;-56
2022/02/26 09:15:43;;;;;;;19.58;8.32;;;;;;;;;;5073281;28;20145;-54
2022/02/26 09:18:11;;;;;;;16.58;7.40;;;;;;;;;;5073200;28;20388;-55
2022/02/26 09:20:37;;;;;;;13.40;7.20;;;;;;;;;;5073048;28;20509;-55
2022/02/26 09:23:03;;;;;;;26.90;13.48;;;;;;;;;;5073141;28;20119;-53
2022/02/26 09:25:29;;;;;;;39.45;17.02;;;;;;;;;;5072493;28;20127;-56
2022/02/26 09:27:55;;;;;;;17.33;9.70;;;;;;;;;;5070232;28;20060;-55
2022/02/26 09:30:22;;;;;;;22.83;9.70;;;;;;;;;;5073060;28;20051;-54
2022/02/26 09:32:48;;;;;;;24.92;10.75;;;;;;;;;;5073090;28;20048;-54
2022/02/26 09:35:16;;;;;;;21.80;9.63;;;;;;;;;;5072990;28;20078;-52
2022/02/26 09:37:42;;;;;;;18.95;10.15;;;;;;;;;;5072968;28;20016;-53
2022/02/26 09:40:09;;;;;;;27.50;11.98;;;;;;;;;;5072638;28;20107;-54
2022/02/26 09:42:36;;;;;;;26.83;15.07;;;;;;;;;;5070215;28;20082;-56
2022/02/26 09:45:03;;;;;;;25.30;14.90;;;;;;;;;;5072798;28;20031;-55
2022/02/26 09:47:29;;;;;;;22.27;11.98;;;;;;;;;;5072301;28;20020;-56
2022/02/26 09:49:55;;;;;;;21.30;10.13;;;;;;;;;;5070218;28;20048;-52
2022/02/26 09:52:24;;;;;;;17.48;8.82;;;;;;;;;;5072331;28;20036;-56
2022/02/26 09:54:50;;;;;;;15.20;7.82;;;;;;;;;;5073179;28;20013;-54
2022/02/26 09:57:18;;;;;;;18.88;9.88;;;;;;;;;;5072780;28;20427;-50
2022/02/26 09:59:46;;;;;;;13.23;7.53;;;;;;;;;;5072320;28;20024;-52
2022/02/26 10:02:13;;;;;;;20.67;10.82;;;;;;;;;;5072752;28;20025;-54
2022/02/26 10:04:51;;;;;;;21.52;11.88;;;;;;;;;;5071530;28;20024;-53
2022/02/26 10:07:20;;;;;;;29.45;13.77;;;;;;;;;;5069370;28;20024;-52
2022/02/26 10:09:47;;;;;;;22.20;10.70;;;;;;;;;;5071670;28;20472;-54
2022/02/26 10:12:23;;;;;;;27.20;13.90;;;;;;;;;;5071927;28;20021;-52
2022/02/26 10:14:50;;;;;;;30.60;14.30;;;;;;;;;;5072043;28;20044;-50
2022/02/26 10:17:26;;;;;;;30.95;16.52;;;;;;;;;;5072026;28;20028;-54
2022/02/26 10:20:12;;;;;;;40.67;19.33;;;;;;;;;;5073028;28;20020;-54
2022/02/26 10:22:40;;;;;;;19.33;12.27;;;;;;;;;;5071715;28;20031;-54
2022/02/26 10:25:19;;;;;;;28.67;15.05;;;;;;;;;;5072399;28;20047;-48
2022/02/26 10:27:47;;;;;;;25.17;11.35;;;;;;;;;;5072880;28;20161;-55
2022/02/26 10:30:15;;;;;;;32.55;14.05;;;;;;;;;;5072404;28;20032;-52
2022/02/26 10:32:43;;;;;;;21.58;9.77;;;;;;;;;;5072662;28;20103;-54
2022/02/26 10:35:11;;;;;;;19.38;8.77;;;;;;;;;;5072943;28;20115;-55
2022/02/26 10:37:37;;;;;;;17.88;7.63;;;;;;;;;;5072896;28;20426;-55
2022/02/26 10:40:06;;;;;;;15.27;8.10;;;;;;;;;;5072685;28;20126;-56
2022/02/26 10:42:33;;;;;;;14.40;7.78;;;;;;;;;;5072799;28;20020;-55
2022/02/26 10:45:13;;;;;;;13.60;6.90;;;;;;;;;;5072752;28;20024;-54
2022/02/26 10:47:41;;;;;;;17.00;8.68;;;;;;;;;;5072697;28;20025;-54
2022/02/26 10:50:23;;;;;;;17.50;8.82;;;;;;;;;;5054688;28;20021;-54
2022/02/26 10:52:55;;;;;;;15.35;8.20;;;;;;;;;;5072736;28;20028;-55
2022/02/26 10:55:22;;;;;;;15.07;8.05;;;;;;;;;;5072833;28;20031;-56
2022/02/26 10:57:48;;;;;;;12.60;6.38;;;;;;;;;;5072586;28;20074;-55
2022/02/26 11:00:17;;;;;;;15.85;8.25;;;;;;;;;;5073263;28;20044;-55
2022/02/26 11:02:43;;;;;;;16.73;8.68;;;;;;;;;;5076546;28;20021;-54
2022/02/26 11:05:09;;;;;;;20.30;9.90;;;;;;;;;;5076576;28;20033;-56
2022/02/26 11:07:36;;;;;;;15.20;8.68;;;;;;;;;;5075515;28;20376;-56
2022/02/26 11:10:02;;;;;;;19.67;9.50;;;;;;;;;;5074762;28;20074;-52
2022/02/26 11:12:28;;;;;;;13.75;7.13;;;;;;;;;;5076667;28;20029;-52
2022/02/26 11:14:59;;;;;;;14.85;7.28;;;;;;;;;;5076090;28;20099;-55
2022/02/26 11:17:26;;;;;;;21.60;11.90;;;;;;;;;;5076132;28;20108;-55
2022/02/26 11:19:55;;;;;;;14.40;6.68;;;;;;;;;;5076153;28;20024;-54
2022/02/26 11:22:23;;;;;;;16.95;8.40;;;;;;;;;;5075939;28;20024;-55
2022/02/26 11:24:50;;;;;;;36.47;14.98;;;;;;;;;;5075903;28;20025;-54
2022/02/26 11:27:16;;;;;;;23.08;12.30;;;;;;;;;;5062021;28;20041;-50
2022/02/26 11:29:44;;;;;;;22.60;11.90;;;;;;;;;;5039788;28;20532;-45
2022/02/26 11:32:15;;;;;;;13.30;7.80;;;;;;;;;;5039790;28;20160;-46
2022/02/26 11:34:41;;;;;;;15.68;9.00;;;;;;;;;;5040071;28;20029;-49
2022/02/26 11:37:09;;;;;;;18.08;8.55;;;;;;;;;;5039723;28;20063;-48
2022/02/26 11:39:36;;;;;;;16.23;8.95;;;;;;;;;;5040131;28;20567;-47
2022/02/26 11:42:17;;;;;;;14.50;6.75;;;;;;;;;;5039371;28;20036;-47
2022/02/26 11:44:44;;;;;;;21.00;9.43;;;;;;;;;;5039525;28;20485;-49
2022/02/26 11:47:18;;;;;;;13.52;7.22;;;;;;;;;;5039244;28;20041;-47
2022/02/26 11:50:00;;;;;;;30.67;12.50;;;;;;;;;;5039707;28;20684;-46
2022/02/26 11:52:43;;;;;;;12.27;6.40;;;;;;;;;;5039547;28;20029;-47
2022/02/26 11:55:28;;;;;;;20.25;8.45;;;;;;;;;;5038809;28;20029;-48
2022/02/26 11:57:56;;;;;;;42.08;20.77;;;;;;;;;;5039134;28;20048;-45
2022/02/26 12:00:22;;;;;;;24.15;13.45;;;;;;;;;;5039078;28;20460;-48
2022/02/26 12:03:06;;;;;;;34.92;19.45;;;;;;;;;;5039302;28;20024;-50
2022/02/26 12:05:35;;;;;;;23.35;12.57;;;;;;;;;;5039118;28;20068;-49
2022/02/26 12:08:08;;;;;;;23.80;10.55;;;;;;;;;;5038949;28;20033;-49
2022/02/26 12:10:34;;;;;;;17.45;7.90;;;;;;;;;;5039202;28;20104;-52
2022/02/26 12:13:00;;;;;;;13.55;7.72;;;;;;;;;;5038557;28;20032;-48
2022/02/26 12:15:32;;;;;;;28.58;11.98;;;;;;;;;;5038958;28;20100;-51
2022/02/26 12:18:01;;;;;;;31.35;17.02;;;;;;;;;;5039028;28;20135;-50
2022/02/26 12:20:31;;;;;;;22.83;10.48;;;;;;;;;;5038940;28;20493;-51
2022/02/26 12:23:07;;;;;;;9.40;5.75;;;;;;;;;;5038953;28;20532;-48
2022/02/26 12:25:38;;;;;;;10.38;4.55;;;;;;;;;;5038816;28;20082;-51
2022/02/26 12:28:08;;;;;;;10.70;4.88;;;;;;;;;;5038416;28;20025;-49
2022/02/26 12:30:50;;;;;;;9.77;4.88;;;;;;;;;;5038327;28;20111;-52
2022/02/26 12:33:16;;;;;;;17.83;9.02;;;;;;;;;;5038935;28;20032;-46
2022/02/26 12:35:42;;;;;;;11.20;6.70;;;;;;;;;;5038238;28;20024;-47
2022/02/26 12:38:32;;;;;;;9.80;5.13;;;;;;;;;;5038359;28;20021;-50
2022/02/26 12:41:03;;;;;;;10.73;6.05;;;;;;;;;;5038647;28;20025;-50
2022/02/26 12:43:29;;;;;;;38.67;17.55;;;;;;;;;;5038359;28;20461;-50
2022/02/26 12:45:56;;;;;;;61.22;27.83;;;;;;;;;;5038564;28;20453;-49
2022/02/26 12:48:23;;;;;;;32.42;15.32;;;;;;;;;;5037905;28;20025;-48
2022/02/26 12:50:50;;;;;;;25.83;10.88;;;;;;;;;;5038221;28;20025;-54
2022/02/26 12:53:20;;;;;;;13.88;5.47;;;;;;;;;;5038649;28;20029;-49
2022/02/26 12:55:46;;;;;;;19.38;7.05;;;;;;;;;;5037946;28;20035;-50
2022/02/26 12:58:12;;;;;;;41.35;9.35;;;;;;;;;;5037587;28;20071;-50
2022/02/26 13:00:38;;;;;;;24.00;9.95;;;;;;;;;;5037798;28;20049;-51
2022/02/26 13:03:04;;;;;;;13.30;6.68;;;;;;;;;;5038132;28;20489;-47
2022/02/26 13:05:32;;;;;;;13.13;5.95;;;;;;;;;;5038156;28;20087;-46
2022/02/26 13:08:05;;;;;;;19.50;8.52;;;;;;;;;;5038005;28;20032;-50
2022/02/26 13:10:36;;;;;;;25.48;12.00;;;;;;;;;;5038735;28;20078;-54
2022/02/26 13:13:07;;;;;;;19.63;9.65;;;;;;;;;;5038924;28;20072;-53
2022/02/26 13:15:33;;;;;;;9.80;5.68;;;;;;;;;;5038238;28;20028;-53
2022/02/26 13:17:59;;;;;;;8.05;4.93;;;;;;;;;;5037938;28;20111;-51
2022/02/26 13:20:26;;;;;;;12.10;5.90;;;;;;;;;;5037492;28;20021;-51
2022/02/26 13:23:03;;;;;;;21.15;10.07;;;;;;;;;;5034434;28;20029;-54
2022/02/26 13:25:31;;;;;;;17.33;9.02;;;;;;;;;;5038032;28;20390;-47
2022/02/26 13:27:57;;;;;;;16.05;8.80;;;;;;;;;;5037264;28;20028;-49
2022/02/26 13:30:24;;;;;;;13.23;6.07;;;;;;;;;;5037924;28;20048;-49
2022/02/26 13:32:52;;;;;;;12.68;6.70;;;;;;;;;;5037111;28;20029;-53
2022/02/26 13:35:20;;;;;;;10.90;5.65;;;;;;;;;;5037312;28;20028;-49
2022/02/26 13:37:46;;;;;;;9.90;5.00;;;;;;;;;;5037396;28;20511;-47
2022/02/26 13:40:13;;;;;;;12.98;5.53;;;;;;;;;;5037594;28;20323;-49
2022/02/26 13:42:41;;;;;;;7.53;5.05;;;;;;;;;;5037375;28;20029;-50
2022/02/26 13:45:08;;;;;;;13.43;5.10;;;;;;;;;;5037720;28;20086;-47
2022/02/26 13:47:35;;;;;;;10.20;4.43;;;;;;;;;;5034640;28;20040;-52
2022/02/26 13:50:03;;;;;;;11.75;5.07;;;;;;;;;;5037573;28;20025;-49
2022/02/26 13:52:30;;;;;;;11.85;4.80;;;;;;;;;;5037315;28;20078;-49
2022/02/26 13:54:58;;;;;;;8.48;4.35;;;;;;;;;;5037427;28;20036;-53
2022/02/26 13:57:29;;;;;;;8.70;4.53;;;;;;;;;;5037149;28;20017;-49
2022/02/26 14:00:05;;;;;;;12.77;3.60;;;;;;;;;;5037285;28;20492;-53
2022/02/26 14:02:31;;;;;;;9.50;4.70;;;;;;;;;;5037378;28;20139;-47
2022/02/26 14:04:59;;;;;;;11.50;5.00;;;;;;;;;;5036967;28;20562;-52
2022/02/26 14:07:40;;;;;;;7.90;4.70;;;;;;;;;;5037066;28;20036;-50
2022/02/26 14:10:07;;;;;;;12.68;4.68;;;;;;;;;;5036767;28;20118;-49
2022/02/26 14:12:34;;;;;;;19.50;11.25;;;;;;;;;;5037275;28;20410;-49
2022/02/26 14:15:03;;;;;;;31.00;16.95;;;;;;;;;;5036661;28;20067;-49
2022/02/26 14:17:30;;;;;;;25.38;13.73;;;;;;;;;;5037459;28;20355;-53
2022/02/26 14:19:59;;;;;;;17.67;9.43;;;;;;;;;;5037485;28;20449;-48
2022/02/26 14:22:27;;;;;;;22.42;12.70;;;;;;;;;;5038264;28;20021;-51
2022/02/26 14:24:53;;;;;;;50.75;33.95;;;;;;;;;;5038620;28;20568;-51
2022/02/26 14:27:26;;;;;;;12.82;7.47;;;;;;;;;;5037876;28;20033;-52
2022/02/26 14:30:09;;;;;;;10.18;5.00;;;;;;;;;;5038243;28;20028;-50